sensor_id;sensor_type;location;lat;lon;timestamp;P1;durP1;ratioP1;P2;durP2;ratioP2
20511;SDS011;10414;52.074;5.126;2023-03-18T00:00:10;20.35;;;9.00;;
20511;SDS011;10414;52.074;5.126;2023-03-18T00:02:41;15.20;;;8.85;;
20511;SDS011;10414;52.074;5.126;2023-03-18T00:05:08;15.27;;;9.00;;
20511;SDS011;10414;52.074;5.126;2023-03-18T00:07:36;15.27;;;9.18;;
20511;SDS011;10414;52.074;5.126;2023-03-18T00:10:05;19.48;;;8.88;;
20511;SDS011;10414;52.074;5.126;2023-03-18T00:12:40;17.08;;;9.13;;
20511;SDS011;10414;52.074;5.126;2023-03-18T00:15:10;16.63;;;9.20;;
20511;SDS011;10414;52.074;5.126;2023-03-18T00:17:38;16.70;;;9.07;;
20511;SDS011;10414;52.074;5.126;2023-03-18T00:20:05;17.13;;;9.20;;
20511;SDS011;10414;52.074;5.126;2023-03-18T00:22:35;16.70;;;9.13;;
20511;SDS011;10414;52.074;5.126;2023-03-18T00:25:03;13.93;;;8.27;;
20511;SDS011;10414;52.074;5.126;2023-03-18T00:27:32;14.88;;;9.20;;
20511;SDS011;10414;52.074;5.126;2023-03-18T00:30:01;18.45;;;8.85;;
20511;SDS011;10414;52.074;5.126;2023-03-18T00:32:29;19.48;;;9.60;;
20511;SDS011;10414;52.074;5.126;2023-03-18T00:34:57;18.48;;;9.70;;
20511;SDS011;10414;52.074;5.126;2023-03-18T00:37:25;16.98;;;9.38;;
20511;SDS011;10414;52.074;5.126;2023-03-18T00:39:56;19.88;;;9.77;;
20511;SDS011;10414;52.074;5.126;2023-03-18T00:42:28;19.77;;;9.32;;
20511;SDS011;10414;52.074;5.126;2023-03-18T00:45:03;20.98;;;10.10;;
20511;SDS011;10414;52.074;5.126;2023-03-18T00:47:31;18.40;;;10.63;;
20511;SDS011;10414;52.074;5.126;2023-03-18T00:49:58;18.45;;;9.43;;
20511;SDS011;10414;52.074;5.126;2023-03-18T00:52:25;21.45;;;10.80;;
20511;SDS011;10414;52.074;5.126;2023-03-18T00:54:52;19.80;;;10.55;;
20511;SDS011;10414;52.074;5.126;2023-03-18T00:57:19;19.10;;;10.68;;
20511;SDS011;10414;52.074;5.126;2023-03-18T00:59:46;17.90;;;10.15;;
20511;SDS011;10414;52.074;5.126;2023-03-18T01:02:15;21.73;;;11.13;;
20511;SDS011;10414;52.074;5.126;2023-03-18T01:04:42;22.02;;;11.60;;
20511;SDS011;10414;52.074;5.126;2023-03-18T01:07:09;18.52;;;10.60;;
20511;SDS011;10414;52.074;5.126;2023-03-18T01:09:37;19.80;;;10.82;;
20511;SDS011;10414;52.074;5.126;2023-03-18T01:12:05;19.65;;;10.93;;
20511;SDS011;10414;52.074;5.126;2023-03-18T01:14:33;18.17;;;10.85;;
20511;SDS011;10414;52.074;5.126;2023-03-18T01:17:00;24.85;;;11.45;;
20511;SDS011;10414;52.074;5.126;2023-03-18T01:19:29;19.10;;;10.98;;
20511;SDS011;10414;52.074;5.126;2023-03-18T01:21:55;21.45;;;10.52;;
20511;SDS011;10414;52.074;5.126;2023-03-18T01:24:23;18.92;;;10.38;;
20511;SDS011;10414;52.074;5.126;2023-03-18T01:26:50;18.88;;;10.13;;
20511;SDS011;10414;52.074;5.126;2023-03-18T01:29:17;20.13;;;11.18;;
20511;SDS011;10414;52.074;5.126;2023-03-18T01:31:45;18.33;;;10.40;;
20511;SDS011;10414;52.074;5.126;2023-03-18T01:34:12;15.65;;;10.45;;
20511;SDS011;10414;52.074;5.126;2023-03-18T01:36:41;18.58;;;10.82;;
20511;SDS011;10414;52.074;5.126;2023-03-18T01:39:09;19.05;;;11.07;;
20511;SDS011;10414;52.074;5.126;2023-03-18T01:41:36;19.30;;;10.88;;
20511;SDS011;10414;52.074;5.126;2023-03-18T01:44:05;20.75;;;11.25;;
20511;SDS011;10414;52.074;5.126;2023-03-18T01:46:37;22.65;;;11.50;;
20511;SDS011;10414;52.074;5.126;2023-03-18T01:49:09;20.55;;;11.77;;
20511;SDS011;10414;52.074;5.126;2023-03-18T01:51:38;18.77;;;10.73;;
20511;SDS011;10414;52.074;5.126;2023-03-18T01:54:10;20.58;;;10.93;;
20511;SDS011;10414;52.074;5.126;2023-03-18T01:56:38;20.38;;;11.48;;
20511;SDS011;10414;52.074;5.126;2023-03-18T01:59:08;22.55;;;12.23;;
20511;SDS011;10414;52.074;5.126;2023-03-18T02:01:37;20.42;;;10.65;;
20511;SDS011;10414;52.074;5.126;2023-03-18T02:04:08;18.27;;;11.43;;
20511;SDS011;10414;52.074;5.126;2023-03-18T02:06:36;19.60;;;11.68;;
20511;SDS011;10414;52.074;5.126;2023-03-18T02:09:05;21.60;;;12.00;;
20511;SDS011;10414;52.074;5.126;2023-03-18T02:11:36;21.25;;;10.90;;
20511;SDS011;10414;52.074;5.126;2023-03-18T02:14:06;21.85;;;11.75;;
20511;SDS011;10414;52.074;5.126;2023-03-18T02:16:37;23.05;;;12.25;;
20511;SDS011;10414;52.074;5.126;2023-03-18T02:19:12;21.80;;;12.35;;
20511;SDS011;10414;52.074;5.126;2023-03-18T02:21:50;23.33;;;12.93;;
20511;SDS011;10414;52.074;5.126;2023-03-18T02:24:35;22.20;;;12.85;;
20511;SDS011;10414;52.074;5.126;2023-03-18T02:27:14;21.17;;;12.95;;
20511;SDS011;10414;52.074;5.126;2023-03-18T02:29:42;23.95;;;12.52;;
20511;SDS011;10414;52.074;5.126;2023-03-18T02:32:10;22.38;;;12.48;;
20511;SDS011;10414;52.074;5.126;2023-03-18T02:34:39;23.17;;;12.80;;
20511;SDS011;10414;52.074;5.126;2023-03-18T02:37:08;27.88;;;13.27;;
20511;SDS011;10414;52.074;5.126;2023-03-18T02:39:35;23.90;;;12.77;;
20511;SDS011;10414;52.074;5.126;2023-03-18T02:42:03;20.98;;;13.10;;
20511;SDS011;10414;52.074;5.126;2023-03-18T02:44:31;20.83;;;12.60;;
20511;SDS011;10414;52.074;5.126;2023-03-18T02:47:02;25.88;;;13.02;;
20511;SDS011;10414;52.074;5.126;2023-03-18T02:49:34;22.42;;;13.27;;
20511;SDS011;10414;52.074;5.126;2023-03-18T02:52:02;21.33;;;12.90;;
20511;SDS011;10414;52.074;5.126;2023-03-18T02:54:30;23.83;;;14.00;;
20511;SDS011;10414;52.074;5.126;2023-03-18T02:56:58;20.52;;;12.27;;
20511;SDS011;10414;52.074;5.126;2023-03-18T02:59:25;23.08;;;13.32;;
20511;SDS011;10414;52.074;5.126;2023-03-18T03:01:54;22.75;;;12.07;;
20511;SDS011;10414;52.074;5.126;2023-03-18T03:04:21;22.40;;;12.30;;
20511;SDS011;10414;52.074;5.126;2023-03-18T03:06:50;21.73;;;12.50;;
20511;SDS011;10414;52.074;5.126;2023-03-18T03:09:18;23.90;;;13.25;;
20511;SDS011;10414;52.074;5.126;2023-03-18T03:11:46;27.27;;;13.38;;
20511;SDS011;10414;52.074;5.126;2023-03-18T03:14:14;23.90;;;13.40;;
20511;SDS011;10414;52.074;5.126;2023-03-18T03:16:41;24.13;;;12.88;;
20511;SDS011;10414;52.074;5.126;2023-03-18T03:19:10;21.48;;;12.50;;
20511;SDS011;10414;52.074;5.126;2023-03-18T03:21:37;24.67;;;13.48;;
20511;SDS011;10414;52.074;5.126;2023-03-18T03:24:04;24.08;;;13.13;;
20511;SDS011;10414;52.074;5.126;2023-03-18T03:26:32;23.10;;;12.90;;
20511;SDS011;10414;52.074;5.126;2023-03-18T03:29:00;25.77;;;12.43;;
20511;SDS011;10414;52.074;5.126;2023-03-18T03:31:28;23.77;;;12.93;;
20511;SDS011;10414;52.074;5.126;2023-03-18T03:33:55;23.17;;;12.77;;
20511;SDS011;10414;52.074;5.126;2023-03-18T03:36:24;24.13;;;12.13;;
20511;SDS011;10414;52.074;5.126;2023-03-18T03:38:51;26.20;;;12.63;;
20511;SDS011;10414;52.074;5.126;2023-03-18T03:41:19;25.90;;;12.25;;
20511;SDS011;10414;52.074;5.126;2023-03-18T03:43:46;26.48;;;13.25;;
20511;SDS011;10414;52.074;5.126;2023-03-18T03:46:13;21.73;;;11.95;;
20511;SDS011;10414;52.074;5.126;2023-03-18T03:48:40;21.77;;;11.95;;
20511;SDS011;10414;52.074;5.126;2023-03-18T03:51:08;25.63;;;12.10;;
20511;SDS011;10414;52.074;5.126;2023-03-18T03:53:36;22.15;;;12.05;;
20511;SDS011;10414;52.074;5.126;2023-03-18T03:56:03;20.88;;;12.02;;
20511;SDS011;10414;52.074;5.126;2023-03-18T03:58:33;20.00;;;11.63;;
20511;SDS011;10414;52.074;5.126;2023-03-18T04:01:00;22.98;;;12.45;;
20511;SDS011;10414;52.074;5.126;2023-03-18T04:03:29;21.25;;;11.95;;
20511;SDS011;10414;52.074;5.126;2023-03-18T04:05:56;18.67;;;11.60;;
20511;SDS011;10414;52.074;5.126;2023-03-18T04:08:23;22.90;;;12.00;;
20511;SDS011;10414;52.074;5.126;2023-03-18T04:10:51;21.90;;;11.27;;
20511;SDS011;10414;52.074;5.126;2023-03-18T04:13:18;24.08;;;12.25;;
20511;SDS011;10414;52.074;5.126;2023-03-18T04:15:45;20.75;;;11.30;;
20511;SDS011;10414;52.074;5.126;2023-03-18T04:18:12;19.23;;;11.40;;
20511;SDS011;10414;52.074;5.126;2023-03-18T04:20:41;22.70;;;11.95;;
20511;SDS011;10414;52.074;5.126;2023-03-18T04:23:08;22.90;;;12.13;;
20511;SDS011;10414;52.074;5.126;2023-03-18T04:25:35;24.20;;;11.98;;
20511;SDS011;10414;52.074;5.126;2023-03-18T04:28:04;24.40;;;12.50;;
20511;SDS011;10414;52.074;5.126;2023-03-18T04:30:31;21.58;;;11.10;;
20511;SDS011;10414;52.074;5.126;2023-03-18T04:32:58;22.58;;;12.02;;
20511;SDS011;10414;52.074;5.126;2023-03-18T04:35:26;21.02;;;11.23;;
20511;SDS011;10414;52.074;5.126;2023-03-18T04:37:52;21.23;;;12.23;;
20511;SDS011;10414;52.074;5.126;2023-03-18T04:40:19;22.15;;;12.70;;
20511;SDS011;10414;52.074;5.126;2023-03-18T04:42:47;22.08;;;12.43;;
20511;SDS011;10414;52.074;5.126;2023-03-18T04:45:15;21.38;;;13.00;;
20511;SDS011;10414;52.074;5.126;2023-03-18T04:47:43;22.23;;;12.52;;
20511;SDS011;10414;52.074;5.126;2023-03-18T04:50:10;21.73;;;11.88;;
20511;SDS011;10414;52.074;5.126;2023-03-18T04:52:38;27.42;;;13.18;;
20511;SDS011;10414;52.074;5.126;2023-03-18T04:55:06;24.25;;;12.80;;
20511;SDS011;10414;52.074;5.126;2023-03-18T04:57:34;22.75;;;13.25;;
20511;SDS011;10414;52.074;5.126;2023-03-18T05:00:03;22.73;;;12.10;;
20511;SDS011;10414;52.074;5.126;2023-03-18T05:02:32;24.33;;;13.15;;
20511;SDS011;10414;52.074;5.126;2023-03-18T05:04:59;25.63;;;12.65;;
20511;SDS011;10414;52.074;5.126;2023-03-18T05:07:26;24.23;;;12.88;;
20511;SDS011;10414;52.074;5.126;2023-03-18T05:09:53;23.83;;;13.82;;
20511;SDS011;10414;52.074;5.126;2023-03-18T05:12:20;23.30;;;12.88;;
20511;SDS011;10414;52.074;5.126;2023-03-18T05:14:47;22.88;;;12.48;;
20511;SDS011;10414;52.074;5.126;2023-03-18T05:17:14;27.88;;;13.05;;
20511;SDS011;10414;52.074;5.126;2023-03-18T05:19:43;21.85;;;12.73;;
20511;SDS011;10414;52.074;5.126;2023-03-18T05:22:11;25.80;;;13.07;;
20511;SDS011;10414;52.074;5.126;2023-03-18T05:24:39;22.65;;;13.02;;
20511;SDS011;10414;52.074;5.126;2023-03-18T05:27:08;27.67;;;12.70;;
20511;SDS011;10414;52.074;5.126;2023-03-18T05:29:36;23.85;;;13.50;;
20511;SDS011;10414;52.074;5.126;2023-03-18T05:32:04;25.33;;;12.75;;
20511;SDS011;10414;52.074;5.126;2023-03-18T05:34:32;25.77;;;12.32;;
20511;SDS011;10414;52.074;5.126;2023-03-18T05:37:00;25.20;;;13.43;;
20511;SDS011;10414;52.074;5.126;2023-03-18T05:39:29;24.95;;;13.20;;
20511;SDS011;10414;52.074;5.126;2023-03-18T05:41:57;23.33;;;13.25;;
20511;SDS011;10414;52.074;5.126;2023-03-18T05:44:25;28.88;;;14.50;;
20511;SDS011;10414;52.074;5.126;2023-03-18T05:46:53;23.90;;;13.20;;
20511;SDS011;10414;52.074;5.126;2023-03-18T05:49:20;27.95;;;14.23;;
20511;SDS011;10414;52.074;5.126;2023-03-18T05:51:47;23.05;;;14.02;;
20511;SDS011;10414;52.074;5.126;2023-03-18T05:54:16;24.80;;;13.52;;
20511;SDS011;10414;52.074;5.126;2023-03-18T05:56:43;28.58;;;14.25;;
20511;SDS011;10414;52.074;5.126;2023-03-18T05:59:11;24.73;;;14.38;;
20511;SDS011;10414;52.074;5.126;2023-03-18T06:01:39;22.95;;;13.70;;
20511;SDS011;10414;52.074;5.126;2023-03-18T06:04:07;23.05;;;13.43;;
20511;SDS011;10414;52.074;5.126;2023-03-18T06:06:35;24.08;;;14.65;;
20511;SDS011;10414;52.074;5.126;2023-03-18T06:09:04;25.35;;;14.27;;
20511;SDS011;10414;52.074;5.126;2023-03-18T06:11:33;25.33;;;13.40;;
20511;SDS011;10414;52.074;5.126;2023-03-18T06:14:02;22.55;;;13.60;;
20511;SDS011;10414;52.074;5.126;2023-03-18T06:16:33;23.55;;;12.75;;
20511;SDS011;10414;52.074;5.126;2023-03-18T06:19:00;23.52;;;13.25;;
20511;SDS011;10414;52.074;5.126;2023-03-18T06:21:31;21.50;;;12.98;;
20511;SDS011;10414;52.074;5.126;2023-03-18T06:24:02;26.58;;;12.88;;
20511;SDS011;10414;52.074;5.126;2023-03-18T06:26:35;21.40;;;12.15;;
20511;SDS011;10414;52.074;5.126;2023-03-18T06:29:05;22.75;;;13.13;;
20511;SDS011;10414;52.074;5.126;2023-03-18T06:31:36;23.73;;;13.07;;
20511;SDS011;10414;52.074;5.126;2023-03-18T06:34:02;21.20;;;12.68;;
20511;SDS011;10414;52.074;5.126;2023-03-18T06:36:30;22.83;;;13.13;;
20511;SDS011;10414;52.074;5.126;2023-03-18T06:38:57;23.73;;;13.52;;
20511;SDS011;10414;52.074;5.126;2023-03-18T06:41:25;23.73;;;13.02;;
20511;SDS011;10414;52.074;5.126;2023-03-18T06:43:53;20.55;;;12.00;;
20511;SDS011;10414;52.074;5.126;2023-03-18T06:46:21;21.63;;;12.55;;
20511;SDS011;10414;52.074;5.126;2023-03-18T06:48:48;21.88;;;12.70;;
20511;SDS011;10414;52.074;5.126;2023-03-18T06:51:18;21.85;;;12.15;;
20511;SDS011;10414;52.074;5.126;2023-03-18T06:53:48;26.63;;;12.15;;
20511;SDS011;10414;52.074;5.126;2023-03-18T06:56:15;21.60;;;12.00;;
20511;SDS011;10414;52.074;5.126;2023-03-18T06:58:44;21.23;;;11.68;;
20511;SDS011;10414;52.074;5.126;2023-03-18T07:01:15;21.15;;;12.18;;
20511;SDS011;10414;52.074;5.126;2023-03-18T07:03:44;24.02;;;12.07;;
20511;SDS011;10414;52.074;5.126;2023-03-18T07:06:13;21.15;;;12.10;;
20511;SDS011;10414;52.074;5.126;2023-03-18T07:08:40;23.40;;;12.27;;
20511;SDS011;10414;52.074;5.126;2023-03-18T07:11:08;19.23;;;11.85;;
20511;SDS011;10414;52.074;5.126;2023-03-18T07:13:36;20.02;;;11.43;;
20511;SDS011;10414;52.074;5.126;2023-03-18T07:16:03;19.33;;;11.88;;
20511;SDS011;10414;52.074;5.126;2023-03-18T07:18:34;20.08;;;11.02;;
20511;SDS011;10414;52.074;5.126;2023-03-18T07:21:02;22.83;;;10.27;;
20511;SDS011;10414;52.074;5.126;2023-03-18T07:23:29;25.08;;;9.00;;
20511;SDS011;10414;52.074;5.126;2023-03-18T07:25:56;16.73;;;9.35;;
20511;SDS011;10414;52.074;5.126;2023-03-18T07:28:23;15.70;;;8.70;;
20511;SDS011;10414;52.074;5.126;2023-03-18T07:30:50;15.70;;;8.50;;
20511;SDS011;10414;52.074;5.126;2023-03-18T07:33:23;16.77;;;8.35;;
20511;SDS011;10414;52.074;5.126;2023-03-18T07:35:51;14.50;;;8.90;;
20511;SDS011;10414;52.074;5.126;2023-03-18T07:38:19;16.60;;;8.82;;
20511;SDS011;10414;52.074;5.126;2023-03-18T07:40:46;15.40;;;8.30;;
20511;SDS011;10414;52.074;5.126;2023-03-18T07:43:13;15.35;;;8.57;;
20511;SDS011;10414;52.074;5.126;2023-03-18T07:45:41;17.20;;;8.90;;
20511;SDS011;10414;52.074;5.126;2023-03-18T07:48:09;17.45;;;9.07;;
20511;SDS011;10414;52.074;5.126;2023-03-18T07:50:37;16.92;;;9.48;;
20511;SDS011;10414;52.074;5.126;2023-03-18T07:53:06;13.85;;;8.50;;
20511;SDS011;10414;52.074;5.126;2023-03-18T07:55:33;13.73;;;8.68;;
20511;SDS011;10414;52.074;5.126;2023-03-18T07:58:00;15.13;;;9.10;;
20511;SDS011;10414;52.074;5.126;2023-03-18T08:00:28;18.10;;;9.52;;
20511;SDS011;10414;52.074;5.126;2023-03-18T08:02:56;15.35;;;9.05;;
20511;SDS011;10414;52.074;5.126;2023-03-18T08:05:24;14.80;;;8.88;;
20511;SDS011;10414;52.074;5.126;2023-03-18T08:07:51;13.57;;;8.23;;
20511;SDS011;10414;52.074;5.126;2023-03-18T08:10:20;11.63;;;8.35;;
20511;SDS011;10414;52.074;5.126;2023-03-18T08:12:49;14.15;;;8.30;;
20511;SDS011;10414;52.074;5.126;2023-03-18T08:15:17;13.60;;;8.40;;
20511;SDS011;10414;52.074;5.126;2023-03-18T08:17:44;15.27;;;7.75;;
20511;SDS011;10414;52.074;5.126;2023-03-18T08:20:12;12.05;;;8.27;;
20511;SDS011;10414;52.074;5.126;2023-03-18T08:22:39;11.05;;;7.57;;
20511;SDS011;10414;52.074;5.126;2023-03-18T08:25:07;12.57;;;7.78;;
20511;SDS011;10414;52.074;5.126;2023-03-18T08:27:36;13.32;;;8.02;;
20511;SDS011;10414;52.074;5.126;2023-03-18T08:30:04;13.02;;;7.35;;
20511;SDS011;10414;52.074;5.126;2023-03-18T08:32:32;13.63;;;8.00;;
20511;SDS011;10414;52.074;5.126;2023-03-18T08:35:00;12.57;;;8.32;;
20511;SDS011;10414;52.074;5.126;2023-03-18T08:37:26;11.73;;;7.55;;
20511;SDS011;10414;52.074;5.126;2023-03-18T08:39:53;12.93;;;8.70;;
20511;SDS011;10414;52.074;5.126;2023-03-18T08:42:20;14.02;;;8.48;;
20511;SDS011;10414;52.074;5.126;2023-03-18T08:44:49;14.48;;;8.50;;
20511;SDS011;10414;52.074;5.126;2023-03-18T08:47:16;17.48;;;8.93;;
20511;SDS011;10414;52.074;5.126;2023-03-18T08:49:43;13.88;;;8.35;;
20511;SDS011;10414;52.074;5.126;2023-03-18T08:52:10;14.13;;;8.20;;
20511;SDS011;10414;52.074;5.126;2023-03-18T08:54:38;13.65;;;7.85;;
20511;SDS011;10414;52.074;5.126;2023-03-18T08:57:08;11.95;;;8.10;;
20511;SDS011;10414;52.074;5.126;2023-03-18T08:59:35;11.73;;;7.78;;
20511;SDS011;10414;52.074;5.126;2023-03-18T09:02:04;11.27;;;7.32;;
20511;SDS011;10414;52.074;5.126;2023-03-18T09:04:31;14.55;;;7.70;;
20511;SDS011;10414;52.074;5.126;2023-03-18T09:06:59;11.60;;;7.68;;
20511;SDS011;10414;52.074;5.126;2023-03-18T09:09:27;12.00;;;7.25;;
20511;SDS011;10414;52.074;5.126;2023-03-18T09:11:54;14.45;;;7.88;;
20511;SDS011;10414;52.074;5.126;2023-03-18T09:14:21;11.82;;;7.47;;
20511;SDS011;10414;52.074;5.126;2023-03-18T09:16:48;12.13;;;8.00;;
20511;SDS011;10414;52.074;5.126;2023-03-18T09:19:16;13.45;;;8.30;;
20511;SDS011;10414;52.074;5.126;2023-03-18T09:21:43;12.27;;;7.80;;
20511;SDS011;10414;52.074;5.126;2023-03-18T09:24:10;13.55;;;8.38;;
20511;SDS011;10414;52.074;5.126;2023-03-18T09:26:37;13.65;;;8.10;;
20511;SDS011;10414;52.074;5.126;2023-03-18T09:29:04;12.68;;;8.85;;
20511;SDS011;10414;52.074;5.126;2023-03-18T09:31:31;13.35;;;8.55;;
20511;SDS011;10414;52.074;5.126;2023-03-18T09:33:59;17.52;;;9.07;;
20511;SDS011;10414;52.074;5.126;2023-03-18T09:36:28;13.43;;;8.98;;
20511;SDS011;10414;52.074;5.126;2023-03-18T09:38:58;14.77;;;9.43;;
20511;SDS011;10414;52.074;5.126;2023-03-18T09:41:27;12.13;;;9.25;;
20511;SDS011;10414;52.074;5.126;2023-03-18T09:44:12;15.90;;;10.05;;
20511;SDS011;10414;52.074;5.126;2023-03-18T09:46:53;15.27;;;9.90;;
20511;SDS011;10414;52.074;5.126;2023-03-18T09:49:44;17.13;;;8.52;;
20511;SDS011;10414;52.074;5.126;2023-03-18T09:52:31;14.32;;;8.73;;
20511;SDS011;10414;52.074;5.126;2023-03-18T09:55:04;14.32;;;9.00;;
20511;SDS011;10414;52.074;5.126;2023-03-18T09:57:38;12.38;;;7.93;;
20511;SDS011;10414;52.074;5.126;2023-03-18T10:00:14;13.05;;;7.88;;
20511;SDS011;10414;52.074;5.126;2023-03-18T10:02:47;12.40;;;7.85;;
20511;SDS011;10414;52.074;5.126;2023-03-18T10:05:24;11.57;;;7.45;;
20511;SDS011;10414;52.074;5.126;2023-03-18T10:08:00;13.80;;;7.65;;
20511;SDS011;10414;52.074;5.126;2023-03-18T10:10:34;11.52;;;7.32;;
20511;SDS011;10414;52.074;5.126;2023-03-18T10:13:05;9.93;;;6.30;;
20511;SDS011;10414;52.074;5.126;2023-03-18T10:15:40;11.25;;;6.18;;
20511;SDS011;10414;52.074;5.126;2023-03-18T10:18:11;11.43;;;6.20;;
20511;SDS011;10414;52.074;5.126;2023-03-18T10:20:46;9.27;;;5.90;;
20511;SDS011;10414;52.074;5.126;2023-03-18T10:23:29;11.25;;;6.32;;
20511;SDS011;10414;52.074;5.126;2023-03-18T10:26:03;10.18;;;6.28;;
20511;SDS011;10414;52.074;5.126;2023-03-18T10:28:39;11.55;;;6.50;;
20511;SDS011;10414;52.074;5.126;2023-03-18T10:31:31;9.50;;;5.53;;
20511;SDS011;10414;52.074;5.126;2023-03-18T10:34:05;10.88;;;6.20;;
20511;SDS011;10414;52.074;5.126;2023-03-18T10:36:37;11.07;;;6.25;;
20511;SDS011;10414;52.074;5.126;2023-03-18T10:39:14;10.38;;;6.15;;
20511;SDS011;10414;52.074;5.126;2023-03-18T10:44:15;11.93;;;6.50;;
20511;SDS011;10414;52.074;5.126;2023-03-18T10:46:45;13.18;;;6.63;;
20511;SDS011;10414;52.074;5.126;2023-03-18T10:49:13;11.20;;;6.80;;
20511;SDS011;10414;52.074;5.126;2023-03-18T10:51:46;11.55;;;7.03;;
20511;SDS011;10414;52.074;5.126;2023-03-18T10:54:22;12.27;;;6.50;;
20511;SDS011;10414;52.074;5.126;2023-03-18T10:56:53;12.63;;;6.82;;
20511;SDS011;10414;52.074;5.126;2023-03-18T10:59:21;10.90;;;5.95;;
20511;SDS011;10414;52.074;5.126;2023-03-18T11:01:51;12.10;;;6.10;;
20511;SDS011;10414;52.074;5.126;2023-03-18T11:04:22;12.35;;;6.13;;
20511;SDS011;10414;52.074;5.126;2023-03-18T11:06:54;13.05;;;6.53;;
20511;SDS011;10414;52.074;5.126;2023-03-18T11:11:55;11.57;;;6.05;;
20511;SDS011;10414;52.074;5.126;2023-03-18T11:14:27;11.63;;;6.00;;
20511;SDS011;10414;52.074;5.126;2023-03-18T11:16:57;10.52;;;6.10;;
20511;SDS011;10414;52.074;5.126;2023-03-18T11:19:29;12.02;;;6.18;;
20511;SDS011;10414;52.074;5.126;2023-03-18T11:25:01;10.13;;;5.22;;
20511;SDS011;10414;52.074;5.126;2023-03-18T11:27:38;10.00;;;5.07;;
20511;SDS011;10414;52.074;5.126;2023-03-18T11:30:10;8.90;;;4.00;;
20511;SDS011;10414;52.074;5.126;2023-03-18T11:32:48;8.63;;;3.90;;
20511;SDS011;10414;52.074;5.126;2023-03-18T11:35:18;11.18;;;4.72;;
20511;SDS011;10414;52.074;5.126;2023-03-18T11:37:46;10.45;;;4.70;;
20511;SDS011;10414;52.074;5.126;2023-03-18T11:40:17;10.55;;;4.78;;
20511;SDS011;10414;52.074;5.126;2023-03-18T11:42:48;10.52;;;4.75;;
20511;SDS011;10414;52.074;5.126;2023-03-18T11:45:28;9.63;;;4.88;;
20511;SDS011;10414;52.074;5.126;2023-03-18T11:48:01;9.98;;;4.82;;
20511;SDS011;10414;52.074;5.126;2023-03-18T11:50:32;8.88;;;4.53;;
20511;SDS011;10414;52.074;5.126;2023-03-18T11:53:07;9.43;;;4.95;;
20511;SDS011;10414;52.074;5.126;2023-03-18T11:55:42;10.55;;;4.60;;
20511;SDS011;10414;52.074;5.126;2023-03-18T11:58:22;9.15;;;4.90;;
20511;SDS011;10414;52.074;5.126;2023-03-18T12:01:11;9.02;;;4.40;;
20511;SDS011;10414;52.074;5.126;2023-03-18T12:07:10;9.10;;;4.25;;
20511;SDS011;10414;52.074;5.126;2023-03-18T12:09:50;11.77;;;4.90;;
20511;SDS011;10414;52.074;5.126;2023-03-18T12:12:39;9.13;;;4.55;;
20511;SDS011;10414;52.074;5.126;2023-03-18T12:15:16;8.25;;;4.53;;
20511;SDS011;10414;52.074;5.126;2023-03-18T12:17:52;8.00;;;4.85;;
20511;SDS011;10414;52.074;5.126;2023-03-18T12:20:35;9.18;;;5.00;;
20511;SDS011;10414;52.074;5.126;2023-03-18T12:26:04;9.85;;;4.55;;
20511;SDS011;10414;52.074;5.126;2023-03-18T12:31:39;7.63;;;3.83;;
20511;SDS011;10414;52.074;5.126;2023-03-18T12:34:28;8.65;;;3.50;;
20511;SDS011;10414;52.074;5.126;2023-03-18T12:37:09;9.07;;;3.63;;
20511;SDS011;10414;52.074;5.126;2023-03-18T12:40:02;10.52;;;3.67;;
20511;SDS011;10414;52.074;5.126;2023-03-18T12:43:01;9.13;;;3.90;;
20511;SDS011;10414;52.074;5.126;2023-03-18T12:46:00;10.20;;;3.58;;
20511;SDS011;10414;52.074;5.126;2023-03-18T12:48:38;8.88;;;3.75;;
20511;SDS011;10414;52.074;5.126;2023-03-18T12:51:13;12.13;;;3.58;;
20511;SDS011;10414;52.074;5.126;2023-03-18T12:53:47;8.20;;;3.47;;
20511;SDS011;10414;52.074;5.126;2023-03-18T12:56:18;9.05;;;3.53;;
20511;SDS011;10414;52.074;5.126;2023-03-18T12:58:52;8.65;;;3.42;;
20511;SDS011;10414;52.074;5.126;2023-03-18T13:01:25;9.43;;;3.25;;
20511;SDS011;10414;52.074;5.126;2023-03-18T13:03:59;6.40;;;3.22;;
20511;SDS011;10414;52.074;5.126;2023-03-18T13:06:36;8.55;;;3.03;;
20511;SDS011;10414;52.074;5.126;2023-03-18T13:09:10;7.70;;;3.15;;
20511;SDS011;10414;52.074;5.126;2023-03-18T13:11:53;9.60;;;3.20;;
20511;SDS011;10414;52.074;5.126;2023-03-18T13:14:28;8.82;;;3.00;;
20511;SDS011;10414;52.074;5.126;2023-03-18T13:17:08;8.35;;;3.30;;
20511;SDS011;10414;52.074;5.126;2023-03-18T13:19:41;6.90;;;2.78;;
20511;SDS011;10414;52.074;5.126;2023-03-18T13:22:13;8.80;;;3.55;;
20511;SDS011;10414;52.074;5.126;2023-03-18T13:24:59;7.15;;;3.40;;
20511;SDS011;10414;52.074;5.126;2023-03-18T13:27:38;7.53;;;3.38;;
20511;SDS011;10414;52.074;5.126;2023-03-18T13:30:19;8.60;;;3.38;;
20511;SDS011;10414;52.074;5.126;2023-03-18T13:33:13;9.93;;;3.13;;
20511;SDS011;10414;52.074;5.126;2023-03-18T13:36:04;5.63;;;2.80;;
20511;SDS011;10414;52.074;5.126;2023-03-18T13:38:59;8.82;;;3.40;;
20511;SDS011;10414;52.074;5.126;2023-03-18T13:41:47;9.38;;;3.45;;
20511;SDS011;10414;52.074;5.126;2023-03-18T13:44:46;7.50;;;3.03;;
20511;SDS011;10414;52.074;5.126;2023-03-18T13:47:21;8.45;;;2.85;;
20511;SDS011;10414;52.074;5.126;2023-03-18T13:49:58;7.60;;;2.92;;
20511;SDS011;10414;52.074;5.126;2023-03-18T13:52:32;9.52;;;3.13;;
20511;SDS011;10414;52.074;5.126;2023-03-18T13:55:03;10.50;;;3.08;;
20511;SDS011;10414;52.074;5.126;2023-03-18T13:57:44;9.40;;;2.80;;
20511;SDS011;10414;52.074;5.126;2023-03-18T14:00:24;8.52;;;2.70;;
20511;SDS011;10414;52.074;5.126;2023-03-18T14:05:48;9.35;;;2.75;;
20511;SDS011;10414;52.074;5.126;2023-03-18T14:17:03;5.20;;;2.55;;
20511;SDS011;10414;52.074;5.126;2023-03-18T14:19:31;7.00;;;2.70;;
20511;SDS011;10414;52.074;5.126;2023-03-18T14:22:05;6.93;;;2.53;;
20511;SDS011;10414;52.074;5.126;2023-03-18T14:27:11;6.45;;;2.53;;
20511;SDS011;10414;52.074;5.126;2023-03-18T14:29:44;6.78;;;2.47;;
20511;SDS011;10414;52.074;5.126;2023-03-18T14:35:20;7.03;;;2.97;;
20511;SDS011;10414;52.074;5.126;2023-03-18T14:37:57;5.30;;;2.40;;
20511;SDS011;10414;52.074;5.126;2023-03-18T14:40:27;6.95;;;2.20;;
20511;SDS011;10414;52.074;5.126;2023-03-18T14:43:05;5.18;;;2.10;;
20511;SDS011;10414;52.074;5.126;2023-03-18T14:45:37;4.05;;;1.52;;
20511;SDS011;10414;52.074;5.126;2023-03-18T14:48:10;3.17;;;1.48;;
20511;SDS011;10414;52.074;5.126;2023-03-18T14:50:43;4.70;;;1.50;;
20511;SDS011;10414;52.074;5.126;2023-03-18T14:53:15;5.63;;;1.65;;
20511;SDS011;10414;52.074;5.126;2023-03-18T14:55:48;4.10;;;1.65;;
20511;SDS011;10414;52.074;5.126;2023-03-18T14:58:17;6.85;;;1.90;;
20511;SDS011;10414;52.074;5.126;2023-03-18T15:00:49;5.55;;;2.13;;
20511;SDS011;10414;52.074;5.126;2023-03-18T15:03:36;6.00;;;2.20;;
20511;SDS011;10414;52.074;5.126;2023-03-18T15:06:14;6.47;;;2.40;;
20511;SDS011;10414;52.074;5.126;2023-03-18T15:08:49;6.30;;;2.50;;
20511;SDS011;10414;52.074;5.126;2023-03-18T15:11:20;7.32;;;2.25;;
20511;SDS011;10414;52.074;5.126;2023-03-18T15:13:53;6.93;;;2.60;;
20511;SDS011;10414;52.074;5.126;2023-03-18T15:16:22;7.57;;;3.20;;
20511;SDS011;10414;52.074;5.126;2023-03-18T15:18:52;7.43;;;3.10;;
20511;SDS011;10414;52.074;5.126;2023-03-18T15:21:24;7.28;;;3.33;;
20511;SDS011;10414;52.074;5.126;2023-03-18T15:24:02;7.57;;;3.20;;
20511;SDS011;10414;52.074;5.126;2023-03-18T15:26:32;7.75;;;3.67;;